Time;durP1;ratioP1;P1;durP2;ratioP2;P2;SDS_P1;SDS_P2;PMS_P1;PMS_P2;Temp;Humidity;BMP_temperature;BMP_pressure;BME280_temperature;BME280_humidity;BME280_pressure;Samples;Min_cycle;Max_cycle;Signal;HPM_P1;HPM_P2
2023/06/19 00:01:54;;;;;;;8.27;5.72;;;;;;;21.99;45.95;99086.91;4355510;32;34509;-85
2023/06/19 00:04:22;;;;;;;9.23;5.80;;;;;;;21.94;45.82;99073.00;4345618;32;34915;-85
2023/06/19 00:06:50;;;;;;;8.57;5.62;;;;;;;22.05;45.19;99076.13;4368205;32;33793;-85
2023/06/19 00:09:17;;;;;;;8.90;5.78;;;;;;;21.99;45.30;99077.19;4365273;32;34253;-84
2023/06/19 00:11:45;;;;;;;9.63;5.70;;;;;;;21.95;45.42;99077.38;4365063;32;34213;-84
2023/06/19 00:14:12;;;;;;;8.13;5.57;;;;;;;21.95;45.76;99075.59;4360497;32;33976;-85
2023/06/19 00:16:40;;;;;;;9.02;5.97;;;;;;;21.79;46.20;99074.41;4348570;32;32750;-85
2023/06/19 00:19:08;;;;;;;8.27;6.00;;;;;;;21.91;45.46;99084.53;4360013;32;34947;-85
2023/06/19 00:21:37;;;;;;;14.32;9.93;;;;;;;21.91;45.52;99079.25;4348571;32;35043;-85
2023/06/19 00:24:05;;;;;;;57.55;34.70;;;;;;;21.91;45.60;99081.03;4359798;32;34281;-85
2023/06/19 00:26:33;;;;;;;38.47;23.02;;;;;;;21.93;45.90;99081.81;4362870;32;33357;-85
2023/06/19 00:29:01;;;;;;;40.28;23.70;;;;;;;21.85;45.83;99080.31;4364688;32;34965;-87
2023/06/19 00:31:28;;;;;;;14.87;8.85;;;;;;;21.83;46.17;99081.31;4360369;32;34155;-85
2023/06/19 00:33:56;;;;;;;8.48;6.10;;;;;;;21.80;46.46;99078.75;4362781;32;34126;-85
2023/06/19 00:36:26;;;;;;;9.30;6.00;;;;;;;21.77;46.20;99077.06;4342142;33;33305;-85
2023/06/19 00:38:54;;;;;;;8.70;6.43;;;;;;;21.73;46.00;99080.75;4351177;32;34304;-90
2023/06/19 00:41:22;;;;;;;9.10;5.62;;;;;;;21.63;46.24;99079.34;4360864;32;34265;-89
2023/06/19 00:43:52;;;;;;;9.98;5.62;;;;;;;21.66;45.91;99073.94;4333921;32;32822;-85
2023/06/19 00:46:19;;;;;;;7.75;5.37;;;;;;;21.46;46.70;99074.62;4358456;32;33317;-86
2023/06/19 00:48:47;;;;;;;9.85;5.93;;;;;;;21.25;47.44;99076.16;4348653;32;34564;-88
2023/06/19 00:51:15;;;;;;;7.57;5.32;;;;;;;21.21;48.38;99077.13;4342131;32;33889;-83
2023/06/19 00:53:52;;;;;;;8.65;5.72;;;;;;;21.18;48.18;99073.75;4358614;32;34551;-88
2023/06/19 00:56:20;;;;;;;7.72;5.53;;;;;;;21.18;47.57;99066.72;4353055;32;34626;-87
2023/06/19 00:58:51;;;;;;;8.90;6.07;;;;;;;21.15;47.06;99077.34;4331922;33;32690;-83
2023/06/19 01:01:21;;;;;;;9.85;5.90;;;;;;;21.21;46.78;99077.13;4346432;32;33742;-83
2023/06/19 01:03:48;;;;;;;8.50;5.72;;;;;;;21.19;47.25;99073.72;4368952;32;33887;-85
2023/06/19 01:06:22;;;;;;;9.60;6.20;;;;;;;21.23;47.09;99071.84;4361431;32;34535;-85
2023/06/19 01:09:03;;;;;;;8.45;6.18;;;;;;;21.21;47.31;99071.00;4352305;32;34160;-83
2023/06/19 01:11:41;;;;;;;9.40;6.53;;;;;;;21.18;47.61;99061.44;4365374;32;35063;-90
2023/06/19 01:14:15;;;;;;;8.57;6.25;;;;;;;21.10;47.82;99064.31;4325718;32;33824;-85
2023/06/19 01:16:43;;;;;;;12.43;6.33;;;;;;;21.09;48.26;99064.34;4354961;32;34480;-84
2023/06/19 01:19:18;;;;;;;10.43;7.20;;;;;;;21.01;48.21;99069.88;4357432;32;33962;-85
2023/06/19 01:27:52;;;;;;;9.55;6.37;;;;;;;21.01;48.36;99063.75;4662518;27;20128;-81
2023/06/19 01:30:23;;;;;;;10.68;5.97;;;;;;;20.92;48.62;99064.03;4347057;32;33793;-87
2023/06/19 01:33:04;;;;;;;10.32;6.45;;;;;;;20.86;48.98;99070.34;4357024;32;34973;-81
2023/06/19 01:35:35;;;;;;;10.18;6.60;;;;;;;20.88;48.88;99069.41;4358542;32;35137;-83
2023/06/19 01:38:03;;;;;;;8.93;6.45;;;;;;;20.80;48.98;99054.75;4360663;32;34609;-86
2023/06/19 01:40:33;;;;;;;9.32;6.70;;;;;;;20.92;48.88;99058.78;4360914;32;34006;-83
2023/06/19 01:43:01;;;;;;;11.25;6.93;;;;;;;20.88;48.99;99050.94;4355188;32;34335;-83
2023/06/19 01:45:30;;;;;;;9.75;7.05;;;;;;;20.96;49.27;99048.06;4362784;32;34060;-81
2023/06/19 01:48:00;;;;;;;8.50;6.37;;;;;;;20.80;49.63;99050.31;4345900;32;34360;-82
2023/06/19 01:50:27;;;;;;;10.65;7.35;;;;;;;20.81;49.55;99040.66;4360065;32;34846;-84
2023/06/19 01:52:55;;;;;;;12.25;7.05;;;;;;;20.76;49.95;99048.69;4346511;32;34812;-78
2023/06/19 01:55:23;;;;;;;10.55;7.03;;;;;;;20.59;49.97;99043.06;4357209;32;33854;-81
2023/06/19 01:57:51;;;;;;;11.45;6.90;;;;;;;20.64;49.75;99047.28;4360319;32;33719;-81
2023/06/19 02:00:19;;;;;;;10.90;6.65;;;;;;;20.64;49.56;99044.62;4360257;32;34930;-83
2023/06/19 02:02:46;;;;;;;8.38;5.95;;;;;;;20.56;49.73;99056.31;4347159;32;34120;-84
2023/06/19 02:05:15;;;;;;;10.95;6.95;;;;;;;20.50;49.82;99048.63;4355630;32;34949;-85
2023/06/19 02:07:42;;;;;;;9.10;6.60;;;;;;;20.45;50.09;99053.09;4360069;32;34551;-85
2023/06/19 02:10:10;;;;;;;9.13;6.32;;;;;;;20.32;50.47;99048.19;4360258;32;33878;-83
2023/06/19 02:12:37;;;;;;;10.00;6.93;;;;;;;20.32;50.49;99050.84;4342885;32;34838;-82
2023/06/19 02:15:05;;;;;;;10.85;7.80;;;;;;;20.42;50.36;99051.44;4357697;32;34296;-81
2023/06/19 02:17:33;;;;;;;12.65;7.05;;;;;;;20.33;50.73;99049.06;4357733;32;33407;-80
2023/06/19 02:20:07;;;;;;;9.95;7.00;;;;;;;20.39;50.26;99055.00;4358018;32;34734;-81
2023/06/19 02:22:35;;;;;;;10.82;7.12;;;;;;;20.60;50.05;99055.31;4360282;32;33907;-81
2023/06/19 02:25:03;;;;;;;9.98;7.25;;;;;;;20.41;50.12;99061.09;4359347;32;35004;-81
2023/06/19 02:27:30;;;;;;;10.45;7.22;;;;;;;20.38;50.14;99057.69;4356249;32;34103;-82
2023/06/19 02:29:59;;;;;;;11.15;7.07;;;;;;;20.39;50.43;99064.69;4359913;32;33583;-82
2023/06/19 02:32:26;;;;;;;9.85;6.78;;;;;;;20.18;50.85;99055.63;4359998;32;33132;-82
2023/06/19 02:34:55;;;;;;;11.25;7.15;;;;;;;20.18;50.71;99051.22;4355299;32;33956;-83
2023/06/19 02:37:22;;;;;;;10.13;7.55;;;;;;;20.09;50.93;99054.13;4343429;32;34679;-81
2023/06/19 02:39:51;;;;;;;11.80;7.40;;;;;;;20.08;51.09;99056.81;4358421;32;33737;-81
2023/06/19 02:42:19;;;;;;;9.57;6.70;;;;;;;20.11;51.04;99061.94;4358592;32;34869;-82
2023/06/19 02:44:46;;;;;;;12.75;7.70;;;;;;;20.13;51.03;99053.12;4341489;32;34583;-86
2023/06/19 02:47:14;;;;;;;8.70;6.72;;;;;;;20.16;50.91;99052.19;4357953;32;34409;-82
2023/06/19 02:49:41;;;;;;;11.12;7.55;;;;;;;20.12;51.05;99063.69;4358762;32;33454;-81
2023/06/19 02:52:09;;;;;;;9.43;7.10;;;;;;;20.24;50.67;99067.75;4360139;32;35108;-86
2023/06/19 02:54:37;;;;;;;10.02;7.75;;;;;;;20.12;50.87;99064.56;4356365;32;34258;-80
2023/06/19 02:57:04;;;;;;;10.43;7.40;;;;;;;20.14;50.85;99072.41;4345384;32;33917;-81
2023/06/19 02:59:32;;;;;;;10.00;7.15;;;;;;;20.24;50.66;99059.88;4360378;32;34960;-83
2023/06/19 03:01:59;;;;;;;9.32;6.95;;;;;;;20.25;50.80;99062.44;4358547;32;33977;-83
2023/06/19 03:04:27;;;;;;;11.30;6.80;;;;;;;20.18;51.13;99069.63;4346157;32;33060;-85
2023/06/19 03:06:55;;;;;;;9.50;6.70;;;;;;;20.30;51.21;99064.94;4360421;32;34504;-82
2023/06/19 03:09:23;;;;;;;10.50;7.00;;;;;;;20.35;51.59;99063.91;4355820;32;34784;-82
2023/06/19 03:11:51;;;;;;;9.30;6.70;;;;;;;20.30;51.87;99062.31;4359954;32;34146;-81
2023/06/19 03:14:19;;;;;;;12.30;6.82;;;;;;;20.44;51.47;99069.81;4355775;32;33871;-82
2023/06/19 03:16:47;;;;;;;10.63;6.95;;;;;;;20.42;51.87;99062.84;4357594;32;33502;-82
2023/06/19 03:19:14;;;;;;;9.18;6.70;;;;;;;20.54;51.94;99069.53;4359253;32;33888;-88
2023/06/19 03:21:42;;;;;;;9.40;6.55;;;;;;;20.57;51.88;99074.72;4359388;32;34206;-82
2023/06/19 03:24:10;;;;;;;9.98;6.78;;;;;;;20.74;51.10;99076.84;4358858;32;35028;-86
2023/06/19 03:26:38;;;;;;;8.15;6.15;;;;;;;20.69;51.58;99078.78;4355728;32;32991;-86
2023/06/19 03:29:06;;;;;;;14.52;7.25;;;;;;;20.73;51.82;99077.75;4344640;32;34101;-82
2023/06/19 03:31:42;;;;;;;9.88;6.70;;;;;;;20.65;52.51;99072.72;4359687;32;34887;-83
2023/06/19 03:34:10;;;;;;;8.48;6.65;;;;;;;20.75;52.54;99077.72;4355680;32;34335;-85
2023/06/19 03:36:38;;;;;;;9.50;7.30;;;;;;;20.83;52.34;99078.34;4357939;32;34534;-82
2023/06/19 03:39:06;;;;;;;9.82;6.85;;;;;;;20.87;52.36;99083.50;4345062;32;33831;-81
2023/06/19 03:41:34;;;;;;;9.43;7.35;;;;;;;20.52;52.79;99081.88;4359612;32;34312;-87
2023/06/19 03:44:01;;;;;;;10.02;6.85;;;;;;;20.52;53.09;99086.28;4355917;32;34828;-80
2023/06/19 03:46:29;;;;;;;9.95;6.57;;;;;;;20.84;51.03;99086.22;4343333;32;33690;-82
2023/06/19 03:48:56;;;;;;;10.40;7.10;;;;;;;20.95;50.79;99082.38;4343406;32;33904;-81
2023/06/19 03:51:24;;;;;;;9.95;6.72;;;;;;;21.07;50.87;99079.37;4356198;32;34232;-81
2023/06/19 03:53:52;;;;;;;10.15;7.05;;;;;;;21.22;51.07;99084.16;4355749;32;33860;-81
2023/06/19 03:56:19;;;;;;;10.55;7.90;;;;;;;21.26;51.00;99084.94;4358216;32;33671;-81
2023/06/19 03:58:46;;;;;;;10.75;7.40;;;;;;;20.88;52.79;99085.22;4357128;32;34014;-87
2023/06/19 04:01:14;;;;;;;10.40;7.03;;;;;;;21.11;52.41;99083.62;4358703;32;34013;-81
2023/06/19 04:03:42;;;;;;;8.27;6.90;;;;;;;21.49;52.19;99073.66;4356592;32;34971;-80
2023/06/19 04:06:10;;;;;;;10.73;7.37;;;;;;;21.24;52.39;99082.31;4356705;32;32561;-82
2023/06/19 04:08:38;;;;;;;10.60;7.32;;;;;;;21.55;51.71;99082.22;4358293;32;34259;-83
2023/06/19 04:11:06;;;;;;;9.90;7.10;;;;;;;21.79;51.59;99082.31;4330431;32;32542;-85
2023/06/19 04:13:34;;;;;;;10.25;7.32;;;;;;;21.88;50.94;99082.00;4356326;32;34448;-86
2023/06/19 04:16:01;;;;;;;10.18;7.15;;;;;;;22.05;50.84;99086.69;4355261;32;33415;-81
2023/06/19 04:18:29;;;;;;;9.05;6.72;;;;;;;22.42;49.36;99085.38;4355245;32;33587;-83
2023/06/19 04:20:56;;;;;;;9.82;6.20;;;;;;;22.62;49.18;99082.88;4356822;32;35057;-85
2023/06/19 04:23:24;;;;;;;12.27;6.68;;;;;;;22.87;49.13;99087.22;4359557;32;34194;-86
2023/06/19 04:25:52;;;;;;;9.55;6.22;;;;;;;23.22;48.08;99073.53;4355213;32;33459;-81
2023/06/19 04:28:19;;;;;;;12.23;6.70;;;;;;;23.46;47.74;99076.09;4350698;32;34404;-84
2023/06/19 04:30:47;;;;;;;10.00;6.80;;;;;;;23.61;47.14;99072.81;4342638;32;34288;-86
2023/06/19 04:33:15;;;;;;;8.98;6.50;;;;;;;23.64;47.77;99074.44;4357727;32;34866;-83
2023/06/19 04:35:42;;;;;;;9.70;6.65;;;;;;;23.73;47.14;99080.25;4355868;32;34260;-82
2023/06/19 04:38:10;;;;;;;9.15;6.22;;;;;;;23.52;47.78;99079.34;4355299;32;34464;-84
2023/06/19 04:40:38;;;;;;;8.98;5.93;;;;;;;23.61;48.11;99080.75;4357624;32;33965;-86
2023/06/19 04:43:05;;;;;;;10.20;6.47;;;;;;;23.87;48.10;99081.47;4357541;32;34461;-82
2023/06/19 04:45:33;;;;;;;8.68;6.22;;;;;;;23.78;48.39;99080.91;4353003;32;32304;-83
2023/06/19 04:48:03;;;;;;;8.65;6.40;;;;;;;24.04;48.06;99078.94;4354029;32;33442;-84
2023/06/19 04:50:30;;;;;;;9.98;6.30;;;;;;;24.37;47.65;99081.88;4358350;32;35049;-86
2023/06/19 04:52:58;;;;;;;10.57;6.45;;;;;;;24.58;47.11;99074.75;4358566;32;34088;-81
2023/06/19 04:55:26;;;;;;;9.45;6.78;;;;;;;24.54;46.92;99075.84;4347198;32;33355;-82
2023/06/19 04:57:53;;;;;;;9.75;6.25;;;;;;;24.77;46.76;99077.41;4357673;32;33912;-84
2023/06/19 05:00:23;;;;;;;8.80;5.95;;;;;;;25.01;46.80;99075.44;4359930;32;34625;-82
2023/06/19 05:02:52;;;;;;;9.55;6.05;;;;;;;25.32;45.61;99076.63;4360720;32;34890;-82
2023/06/19 05:05:20;;;;;;;8.32;6.05;;;;;;;25.00;43.72;99074.56;4360868;32;34340;-82
2023/06/19 05:07:50;;;;;;;11.43;6.75;;;;;;;25.08;42.97;99090.12;4344344;32;34504;-83
2023/06/19 05:10:20;;;;;;;9.38;6.32;;;;;;;24.86;43.61;99092.06;4347798;32;35005;-82
2023/06/19 05:12:48;;;;;;;9.23;6.05;;;;;;;24.70;43.68;99087.47;4357327;32;34264;-83
2023/06/19 05:15:16;;;;;;;9.63;6.28;;;;;;;24.97;43.24;99087.97;4358618;32;34637;-81
2023/06/19 05:17:46;;;;;;;10.05;6.22;;;;;;;24.86;43.20;99089.41;4357062;32;33369;-83
2023/06/19 05:20:15;;;;;;;9.93;6.97;;;;;;;25.15;43.90;99090.69;4359653;32;35158;-87
2023/06/19 05:22:42;;;;;;;10.90;6.50;;;;;;;25.40;42.56;99091.22;4359000;32;34518;-86
2023/06/19 05:25:10;;;;;;;11.73;7.30;;;;;;;25.10;43.39;99093.56;4347216;32;33645;-82
2023/06/19 05:27:37;;;;;;;9.30;7.15;;;;;;;24.80;44.06;99100.28;4360640;32;33976;-83
2023/06/19 05:30:05;;;;;;;12.23;6.78;;;;;;;24.81;44.12;99109.97;4359476;32;34989;-82
2023/06/19 05:32:33;;;;;;;12.37;7.12;;;;;;;24.27;45.25;99118.50;4341633;32;33647;-84
2023/06/19 05:35:01;;;;;;;9.27;6.95;;;;;;;24.09;44.43;99118.44;4346626;32;32161;-85
2023/06/19 05:37:28;;;;;;;12.60;7.15;;;;;;;24.13;45.64;99120.03;4360491;32;33591;-83
2023/06/19 05:39:57;;;;;;;10.70;7.10;;;;;;;24.23;44.85;99122.22;4359570;32;33865;-82
2023/06/19 05:42:24;;;;;;;9.20;7.10;;;;;;;24.43;44.56;99112.56;4360537;32;34999;-82
2023/06/19 05:44:51;;;;;;;11.30;6.97;;;;;;;23.65;45.04;99122.03;4356648;32;33650;-81
2023/06/19 05:47:20;;;;;;;9.82;6.93;;;;;;;23.40;45.17;99119.50;4358652;32;34656;-82
2023/06/19 05:49:48;;;;;;;10.90;7.30;;;;;;;23.78;44.45;99112.66;4356749;32;35049;-79
2023/06/19 05:52:16;;;;;;;8.15;6.05;;;;;;;23.86;44.96;99111.50;4360430;32;35391;-83
2023/06/19 05:54:43;;;;;;;9.00;6.43;;;;;;;24.02;45.18;99120.53;4359631;32;33405;-84
2023/06/19 05:57:11;;;;;;;16.83;7.18;;;;;;;24.24;44.10;99121.31;4356398;32;34868;-85
2023/06/19 05:59:39;;;;;;;10.55;7.30;;;;;;;24.36;43.84;99119.91;4357062;32;34037;-83
2023/06/19 06:02:07;;;;;;;9.15;6.05;;;;;;;24.37;43.83;99123.41;4356700;32;35445;-86
2023/06/19 06:04:36;;;;;;;10.10;6.45;;;;;;;24.46;43.88;99123.03;4344439;32;33825;-81
2023/06/19 06:07:04;;;;;;;11.00;6.95;;;;;;;24.75;44.57;99125.22;4360639;32;33606;-80
2023/06/19 06:09:32;;;;;;;14.05;7.37;;;;;;;24.95;43.55;99118.13;4356624;32;35160;-83
2023/06/19 06:12:00;;;;;;;12.75;6.95;;;;;;;25.19;42.88;99126.75;4358360;32;34528;-84
2023/06/19 06:14:28;;;;;;;10.57;7.03;;;;;;;25.46;44.71;99127.25;4354989;32;34225;-86
2023/06/19 06:16:55;;;;;;;10.48;6.87;;;;;;;25.64;43.10;99138.72;4356984;32;33994;-86
2023/06/19 06:19:23;;;;;;;10.57;6.50;;;;;;;26.19;42.02;99134.19;4354987;32;35105;-82
2023/06/19 06:21:50;;;;;;;11.40;6.22;;;;;;;26.04;41.94;99134.97;4358665;32;34579;-85
2023/06/19 06:24:18;;;;;;;12.00;6.65;;;;;;;26.60;41.49;99131.19;4359914;32;33457;-82
2023/06/19 06:26:46;;;;;;;10.23;5.95;;;;;;;26.56;41.16;99132.31;4356594;32;33033;-85
2023/06/19 06:29:13;;;;;;;10.27;5.80;;;;;;;26.60;39.67;99139.19;4346300;32;34124;-83
2023/06/19 06:31:41;;;;;;;10.57;5.93;;;;;;;26.44;40.11;99140.88;4359322;32;34110;-82
2023/06/19 06:34:09;;;;;;;7.72;5.20;;;;;;;26.16;38.51;99139.66;4360360;32;33839;-81
2023/06/19 06:36:36;;;;;;;9.82;4.85;;;;;;;26.08;36.47;99136.53;4342395;32;32586;-82
2023/06/19 06:39:13;;;;;;;7.45;4.60;;;;;;;25.90;38.59;99133.00;4345486;32;34486;-87
2023/06/19 06:41:40;;;;;;;10.75;5.18;;;;;;;26.68;37.40;99147.59;4357786;32;33887;-87
2023/06/19 06:44:13;;;;;;;11.05;5.30;;;;;;;26.42;37.93;99148.09;4344690;32;34176;-86
2023/06/19 06:46:40;;;;;;;9.73;5.47;;;;;;;26.75;38.90;99144.62;4359587;32;34027;-85
2023/06/19 06:49:08;;;;;;;8.52;4.75;;;;;;;26.48;37.45;99142.50;4359292;32;35023;-89
2023/06/19 06:51:35;;;;;;;9.70;4.90;;;;;;;26.66;36.18;99144.16;4358289;32;33886;-83
2023/06/19 06:54:03;;;;;;;7.85;5.05;;;;;;;26.53;36.18;99143.09;4355352;32;33253;-84
2023/06/19 06:56:31;;;;;;;8.50;4.97;;;;;;;26.63;36.52;99139.03;4357407;32;34681;-87
2023/06/19 06:58:58;;;;;;;12.70;5.32;;;;;;;26.17;37.65;99140.50;4354860;32;35555;-86
2023/06/19 07:01:26;;;;;;;12.35;5.68;;;;;;;26.99;36.78;99145.06;4358938;32;33565;-87
2023/06/19 07:03:54;;;;;;;9.55;5.45;;;;;;;26.96;37.06;99146.09;4359973;32;33827;-85
2023/06/19 07:06:21;;;;;;;11.40;5.32;;;;;;;26.46;36.99;99147.00;4360155;32;33983;-85
2023/06/19 07:08:49;;;;;;;10.30;5.30;;;;;;;26.68;36.93;99144.94;4358153;32;34933;-86
2023/06/19 07:11:17;;;;;;;8.13;4.95;;;;;;;26.25;38.25;99150.75;4355022;32;34276;-84
2023/06/19 07:13:44;;;;;;;14.55;6.03;;;;;;;26.42;38.21;99148.09;4358555;32;33613;-82
2023/06/19 07:16:12;;;;;;;8.52;5.03;;;;;;;26.29;36.02;99144.34;4355069;32;33947;-84
2023/06/19 07:18:41;;;;;;;11.88;6.00;;;;;;;26.29;38.49;99139.91;4358275;32;34228;-85
2023/06/19 07:21:12;;;;;;;17.17;7.05;;;;;;;25.99;37.74;99142.34;4346316;32;35083;-86
2023/06/19 07:23:41;;;;;;;11.15;5.37;;;;;;;26.28;38.03;99138.16;4356251;32;34637;-82
2023/06/19 07:26:09;;;;;;;9.85;5.60;;;;;;;26.78;37.21;99139.09;4355675;32;34772;-83
2023/06/19 07:28:37;;;;;;;10.90;5.72;;;;;;;26.76;37.02;99151.66;4359513;32;35064;-83
2023/06/19 07:31:05;;;;;;;15.13;5.78;;;;;;;26.81;37.54;99146.94;4356264;32;33983;-81
2023/06/19 07:33:32;;;;;;;10.57;5.45;;;;;;;26.53;36.55;99142.25;4358902;32;34418;-82
2023/06/19 07:35:59;;;;;;;9.32;5.20;;;;;;;26.93;37.39;99141.81;4358745;32;34535;-86
2023/06/19 07:38:27;;;;;;;7.85;4.90;;;;;;;26.78;36.21;99139.09;4355928;32;34299;-82
2023/06/19 07:40:55;;;;;;;9.88;5.45;;;;;;;26.72;36.83;99142.13;4355930;32;34254;-83
2023/06/19 07:43:22;;;;;;;8.20;5.25;;;;;;;26.93;37.89;99139.16;4345399;32;32655;-81
2023/06/19 07:45:51;;;;;;;8.65;5.30;;;;;;;26.88;37.50;99141.19;4358794;32;33631;-85
2023/06/19 07:48:19;;;;;;;9.60;5.65;;;;;;;26.98;37.94;99141.56;4357636;32;34146;-85
2023/06/19 07:50:46;;;;;;;10.13;5.25;;;;;;;26.92;36.12;99141.88;4359759;32;34116;-86
2023/06/19 07:53:14;;;;;;;14.05;6.15;;;;;;;27.09;37.43;99135.66;4359210;32;34545;-82
2023/06/19 07:55:41;;;;;;;16.20;5.80;;;;;;;27.36;36.38;99134.13;4358055;32;33695;-82
2023/06/19 07:58:09;;;;;;;14.20;6.10;;;;;;;27.05;36.50;99134.06;4358448;32;34146;-87
2023/06/19 08:00:37;;;;;;;9.77;5.70;;;;;;;27.14;37.64;99142.44;4363413;32;33921;-81
2023/06/19 08:03:05;;;;;;;8.98;5.05;;;;;;;27.50;37.15;99143.97;4359256;32;33888;-82
2023/06/19 08:05:32;;;;;;;11.80;5.53;;;;;;;27.55;35.53;99141.06;4359023;32;34023;-84
2023/06/19 08:08:00;;;;;;;13.45;5.62;;;;;;;27.55;36.95;99131.28;4356590;32;35014;-83
2023/06/19 08:10:27;;;;;;;10.00;5.90;;;;;;;27.60;36.66;99134.53;4356255;32;35001;-85
2023/06/19 08:12:55;;;;;;;11.02;6.37;;;;;;;27.34;36.29;99140.47;4353582;32;33555;-85
2023/06/19 08:15:23;;;;;;;7.70;5.78;;;;;;;27.38;36.72;99132.22;4342009;32;32392;-82
2023/06/19 08:17:50;;;;;;;12.05;6.55;;;;;;;27.68;35.23;99139.41;4356263;32;34029;-82
2023/06/19 08:20:19;;;;;;;9.52;5.22;;;;;;;27.29;36.38;99139.87;4341589;32;34202;-84
2023/06/19 08:22:47;;;;;;;8.90;5.62;;;;;;;28.24;35.83;99132.56;4360577;32;34281;-83
2023/06/19 08:25:15;;;;;;;12.93;5.32;;;;;;;28.14;35.98;99137.56;4358453;32;33803;-84
2023/06/19 08:27:45;;;;;;;10.40;5.28;;;;;;;27.83;36.96;99133.22;4357435;32;35415;-86
2023/06/19 08:30:13;;;;;;;9.23;4.75;;;;;;;28.20;35.93;99140.84;4357207;32;34849;-82
2023/06/19 08:32:44;;;;;;;7.85;5.10;;;;;;;28.41;34.75;99131.56;4350171;32;33958;-83
2023/06/19 08:35:11;;;;;;;9.93;5.75;;;;;;;28.84;33.99;99131.59;4345478;32;33788;-84
2023/06/19 08:37:39;;;;;;;7.45;5.07;;;;;;;28.97;34.74;99129.84;4357905;32;34883;-84
2023/06/19 08:40:09;;;;;;;8.63;5.62;;;;;;;29.04;33.91;99135.69;4346214;32;34885;-83
2023/06/19 08:42:37;;;;;;;8.85;4.90;;;;;;;28.67;34.85;99139.78;4345315;32;33733;-86
2023/06/19 08:45:06;;;;;;;9.10;5.43;;;;;;;28.93;33.75;99135.47;4344034;32;34069;-83
2023/06/19 08:47:35;;;;;;;16.37;5.90;;;;;;;28.60;33.68;99129.50;4351194;32;34016;-82
2023/06/19 08:50:03;;;;;;;9.10;5.87;;;;;;;28.74;34.00;99125.09;4358289;32;34246;-87
2023/06/19 08:52:30;;;;;;;10.27;5.55;;;;;;;28.46;33.68;99126.81;4358845;32;34071;-83
2023/06/19 08:54:58;;;;;;;9.05;5.45;;;;;;;28.50;34.32;99130.16;4361389;32;33881;-88
2023/06/19 08:57:37;;;;;;;12.18;5.70;;;;;;;28.47;33.41;99128.53;4359443;32;33777;-86
2023/06/19 09:00:06;;;;;;;12.88;5.10;;;;;;;28.94;34.38;99132.69;4364420;32;34598;-85
2023/06/19 09:02:40;;;;;;;9.10;5.60;;;;;;;29.03;33.48;99128.66;4348565;32;33483;-85
2023/06/19 09:05:18;;;;;;;11.00;4.85;;;;;;;28.70;32.32;99128.91;4345825;32;33518;-87
2023/06/19 09:07:56;;;;;;;7.72;4.90;;;;;;;28.53;32.68;99127.31;4341099;32;35011;-87
2023/06/19 09:10:24;;;;;;;8.90;5.12;;;;;;;29.03;33.05;99132.16;4359052;32;34500;-83
2023/06/19 09:12:58;;;;;;;7.85;4.90;;;;;;;29.43;31.86;99118.91;4344222;32;32190;-83
2023/06/19 09:15:31;;;;;;;8.45;5.32;;;;;;;29.00;32.22;99134.19;4354521;32;34910;-85
2023/06/19 09:18:07;;;;;;;7.57;5.18;;;;;;;28.86;32.59;99129.66;4355692;32;35886;-85
2023/06/19 09:20:44;;;;;;;8.35;5.28;;;;;;;29.24;31.86;99124.56;4358206;32;34002;-84
2023/06/19 09:23:11;;;;;;;9.52;5.05;;;;;;;28.85;32.51;99123.47;4344638;32;33449;-87
2023/06/19 09:25:52;;;;;;;8.18;4.97;;;;;;;29.01;31.66;99123.38;4343599;32;34565;-82
2023/06/19 09:28:22;;;;;;;10.27;5.20;;;;;;;29.35;31.18;99123.87;4367235;32;33923;-87
2023/06/19 09:30:53;;;;;;;9.00;5.30;;;;;;;29.20;30.92;99120.41;4355063;32;34201;-83
2023/06/19 09:33:21;;;;;;;10.70;4.85;;;;;;;29.70;30.83;99120.72;4361682;32;33934;-81
2023/06/19 09:35:50;;;;;;;9.75;4.53;;;;;;;29.08;32.36;99130.06;4334830;32;33462;-85
2023/06/19 09:38:18;;;;;;;9.75;5.12;;;;;;;29.44;31.08;99123.31;4347421;32;33989;-83
2023/06/19 09:40:47;;;;;;;7.40;4.50;;;;;;;29.66;31.74;99125.41;4347186;32;34214;-82
2023/06/19 09:43:19;;;;;;;11.95;4.78;;;;;;;30.00;29.47;99110.69;4347203;32;33696;-82
2023/06/19 09:45:49;;;;;;;10.13;4.70;;;;;;;30.09;30.71;99111.84;4347351;32;33872;-82
2023/06/19 09:48:22;;;;;;;8.60;4.55;;;;;;;30.27;29.96;99117.81;4347167;32;33437;-82
2023/06/19 09:50:51;;;;;;;12.07;6.12;;;;;;;30.38;30.73;99112.53;4360991;32;34563;-84
2023/06/19 09:53:20;;;;;;;8.82;4.93;;;;;;;29.51;30.51;99111.25;4360884;32;34520;-82
2023/06/19 09:55:50;;;;;;;9.30;5.10;;;;;;;29.69;31.36;99114.53;4347323;32;33849;-82
2023/06/19 09:58:19;;;;;;;7.75;5.15;;;;;;;29.61;30.76;99105.34;4347885;32;33661;-82
2023/06/19 10:00:47;;;;;;;10.27;5.60;;;;;;;29.77;30.69;99106.00;4361965;32;34975;-82
2023/06/19 10:03:16;;;;;;;9.57;5.45;;;;;;;30.21;30.63;99104.84;4375763;32;33449;-82
2023/06/19 10:05:44;;;;;;;8.35;5.10;;;;;;;29.98;30.83;99099.22;4362191;32;32205;-84
2023/06/19 10:08:12;;;;;;;8.80;5.12;;;;;;;30.10;30.68;99097.53;4375484;32;34193;-82
2023/06/19 10:10:47;;;;;;;7.20;4.65;;;;;;;30.08;30.12;99091.44;4355828;32;33921;-82
2023/06/19 10:13:16;;;;;;;9.20;5.00;;;;;;;30.12;30.94;99100.06;4360886;32;33241;-83
2023/06/19 10:15:44;;;;;;;10.07;5.10;;;;;;;29.98;31.11;99098.38;4347145;32;33863;-82
2023/06/19 10:18:16;;;;;;;8.30;4.78;;;;;;;30.33;31.39;99098.62;4347221;32;33928;-83
2023/06/19 10:20:46;;;;;;;9.20;5.20;;;;;;;30.57;30.81;99089.84;4347327;32;34228;-84
2023/06/19 10:23:18;;;;;;;9.73;4.80;;;;;;;30.28;30.57;99082.06;4362821;32;33317;-84
2023/06/19 10:25:53;;;;;;;9.15;4.95;;;;;;;30.38;31.18;99080.44;4347309;32;34094;-84
2023/06/19 10:28:22;;;;;;;8.50;5.03;;;;;;;30.54;30.69;99077.56;4359646;32;34161;-82
2023/06/19 10:30:56;;;;;;;7.00;4.55;;;;;;;30.60;31.41;99082.44;4360349;32;33884;-83
2023/06/19 10:33:26;;;;;;;7.40;5.07;;;;;;;30.78;30.12;99089.19;4343722;32;34387;-81
2023/06/19 10:35:56;;;;;;;7.30;4.55;;;;;;;30.84;28.83;99085.25;4359126;32;34619;-83
2023/06/19 10:38:24;;;;;;;10.60;4.30;;;;;;;30.44;30.77;99084.50;4357668;32;35030;-82
2023/06/19 10:40:52;;;;;;;9.23;4.80;;;;;;;30.98;27.31;99077.03;4359474;32;34239;-83
2023/06/19 10:43:27;;;;;;;9.63;4.45;;;;;;;30.66;28.64;99078.50;4360459;32;33752;-82
2023/06/19 10:45:55;;;;;;;10.60;5.10;;;;;;;31.08;30.10;99079.06;4335257;32;32681;-82
2023/06/19 10:48:24;;;;;;;9.70;5.22;;;;;;;30.78;29.02;99085.69;4359757;32;34970;-83
2023/06/19 10:50:51;;;;;;;8.73;4.85;;;;;;;31.08;30.43;99082.59;4360434;32;35118;-81
2023/06/19 10:53:26;;;;;;;10.32;5.03;;;;;;;31.02;28.10;99075.84;4360523;32;33558;-82
2023/06/19 10:55:55;;;;;;;;;;;;;;;31.15;28.72;99074.97;4347141;32;33581;-82
2023/06/19 10:58:23;;;;;;;8.50;5.18;;;;;;;31.41;28.95;99081.97;4360356;32;35161;-82
2023/06/19 11:00:50;;;;;;;7.75;4.82;;;;;;;31.50;27.13;99070.56;4360109;32;34109;-82
2023/06/19 11:03:19;;;;;;;10.82;4.82;;;;;;;31.46;27.15;99074.44;4360218;32;34459;-82
2023/06/19 11:05:47;;;;;;;8.13;4.95;;;;;;;31.92;27.01;99076.34;4338467;32;33969;-81
2023/06/19 11:08:19;;;;;;;8.55;4.60;;;;;;;31.92;29.23;99073.66;4331982;32;33710;-82
2023/06/19 11:10:47;;;;;;;8.38;4.75;;;;;;;31.68;26.77;99060.28;4344520;32;34946;-81
2023/06/19 11:13:16;;;;;;;9.27;4.78;;;;;;;31.60;26.78;99059.16;4346024;32;33582;-82
2023/06/19 11:15:46;;;;;;;9.85;4.85;;;;;;;31.78;28.21;99063.09;4345248;32;33995;-81
2023/06/19 11:18:15;;;;;;;10.13;4.55;;;;;;;31.47;26.45;99067.25;4345648;32;33910;-81
2023/06/19 11:20:52;;;;;;;7.75;4.85;;;;;;;31.52;27.02;99058.84;4359770;32;34945;-81
2023/06/19 11:23:28;;;;;;;7.82;5.03;;;;;;;31.42;25.66;99061.38;4360052;32;32477;-82
2023/06/19 11:26:03;;;;;;;8.55;4.62;;;;;;;31.40;26.98;99074.88;4346235;32;33922;-82
2023/06/19 11:28:31;;;;;;;8.43;4.78;;;;;;;31.73;27.06;99065.28;4346138;32;34058;-82
2023/06/19 11:31:01;;;;;;;13.85;5.05;;;;;;;31.79;26.83;99063.97;4358824;32;34008;-81
2023/06/19 11:33:30;;;;;;;11.23;5.30;;;;;;;31.92;26.06;99057.56;4344947;32;31751;-81
2023/06/19 11:36:01;;;;;;;9.70;4.72;;;;;;;32.04;26.19;99053.06;4357435;32;33571;-82
2023/06/19 11:38:29;;;;;;;8.68;5.07;;;;;;;31.29;27.52;99056.03;4346143;32;33409;-81
2023/06/19 11:40:57;;;;;;;10.93;5.35;;;;;;;31.32;26.48;99045.12;4359025;32;34025;-81
2023/06/19 11:43:31;;;;;;;7.80;4.78;;;;;;;31.60;26.29;99040.41;4343474;32;33620;-82